Time;durP1;ratioP1;P1;durP2;ratioP2;P2;SDS_P1;SDS_P2;PMS_P1;PMS_P2;Temp;Humidity;BMP_temperature;BMP_pressure;BME280_temperature;BME280_humidity;BME280_pressure;Samples;Min_cycle;Max_cycle;Signal;HPM_P1;HPM_P2
2022/03/10 00:00:04;;;;;;;4.40;3.20;;;;;;;1.35;100.00;99296.91;10348642;28;20073;-64
2022/03/10 00:05:15;;;;;;;4.82;3.40;;;;;;;1.22;100.00;99300.22;10375643;28;20035;-62
2022/03/10 00:10:20;;;;;;;4.25;3.40;;;;;;;1.14;100.00;99299.75;10367601;28;20027;-64
2022/03/10 00:15:24;;;;;;;3.97;3.22;;;;;;;1.15;100.00;99298.81;10336949;28;20062;-61
2022/03/10 00:20:27;;;;;;;4.25;3.30;;;;;;;1.18;100.00;99300.44;10322397;28;20570;-62
2022/03/10 00:25:33;;;;;;;4.72;3.38;;;;;;;1.18;100.00;99303.97;10321971;28;20060;-62
2022/03/10 00:30:36;;;;;;;4.60;3.50;;;;;;;1.17;100.00;99307.56;10350911;23;20081;-61
2022/03/10 00:42:35;;;;;;;4.00;3.20;;;;;;;1.15;100.00;99322.69;10328832;28;20491;-60
2022/03/10 00:47:38;;;;;;;3.75;3.33;;;;;;;1.12;100.00;99322.84;10337471;28;20129;-59
2022/03/10 00:52:43;;;;;;;5.43;3.60;;;;;;;1.08;100.00;99323.97;10318861;28;20046;-58
2022/03/10 00:57:49;;;;;;;4.15;3.60;;;;;;;1.03;100.00;99325.97;10315798;28;20594;-59
2022/03/10 01:02:53;;;;;;;4.13;3.72;;;;;;;0.96;100.00;99320.13;10320939;28;20042;-59
2022/03/10 01:07:57;;;;;;;3.75;3.38;;;;;;;0.84;100.00;99321.63;10302953;28;20060;-60
2022/03/10 01:13:03;;;;;;;3.90;3.50;;;;;;;0.71;100.00;99331.13;10320315;28;20065;-58
2022/03/10 01:18:07;;;;;;;6.97;3.33;;;;;;;0.64;100.00;99335.03;10322009;28;20050;-59
2022/03/10 01:23:12;;;;;;;3.33;3.03;;;;;;;0.51;100.00;99345.34;10320175;28;20049;-59
2022/03/10 01:28:17;;;;;;;3.60;3.30;;;;;;;0.43;100.00;99336.00;10322193;28;20049;-58
2022/03/10 01:33:21;;;;;;;3.65;3.10;;;;;;;0.34;100.00;99341.75;10324678;28;20093;-60
2022/03/10 01:38:25;;;;;;;6.50;3.67;;;;;;;0.23;100.00;99342.25;10324476;28;20039;-58
2022/03/10 01:43:31;;;;;;;4.03;3.60;;;;;;;0.10;100.00;99339.31;10324843;28;20053;-59
2022/03/10 01:48:35;;;;;;;6.68;4.00;;;;;;;-0.03;100.00;99344.31;10305222;28;20376;-59
2022/03/10 01:53:38;;;;;;;5.22;3.60;;;;;;;-0.10;100.00;99356.16;10323387;28;20054;-59
2022/03/10 01:58:44;;;;;;;5.07;3.72;;;;;;;-0.19;100.00;99352.13;10318563;28;20046;-59
2022/03/10 02:03:48;;;;;;;4.85;3.83;;;;;;;-0.18;100.00;99359.16;10304487;28;20905;-61
2022/03/10 02:19:34;;;;;;;4.70;3.70;;;;;;;-0.35;100.00;99364.31;10322416;28;20507;-59
2022/03/10 02:24:42;;;;;;;4.10;3.70;;;;;;;-0.35;100.00;99365.19;10312149;28;20050;-61
2022/03/10 02:29:45;;;;;;;4.10;3.70;;;;;;;-0.36;100.00;99371.44;10325356;28;20053;-61
2022/03/10 02:34:49;;;;;;;5.22;3.72;;;;;;;-0.38;100.00;99361.84;10316729;28;20061;-61
2022/03/10 02:39:55;;;;;;;4.05;3.63;;;;;;;-0.44;100.00;99360.31;10325115;28;20494;-61
2022/03/10 02:44:59;;;;;;;4.55;4.05;;;;;;;-0.52;100.00;99380.97;10330526;28;20038;-57
2022/03/10 02:50:06;;;;;;;4.50;4.00;;;;;;;-0.60;100.00;99378.69;10329645;28;20065;-58
2022/03/10 02:55:11;;;;;;;5.28;4.00;;;;;;;-0.68;100.00;99381.66;10352837;28;20129;-58
2022/03/10 03:00:15;;;;;;;6.90;4.00;;;;;;;-0.71;100.00;99381.78;10337158;28;20042;-60
2022/03/10 03:05:19;;;;;;;3.78;3.38;;;;;;;-0.72;100.00;99380.06;10332104;28;20554;-59
2022/03/10 03:10:23;;;;;;;6.85;3.90;;;;;;;-0.72;100.00;99390.63;10308161;28;20047;-60
2022/03/10 03:15:26;;;;;;;4.63;3.90;;;;;;;-0.69;100.00;99385.22;10327836;28;20057;-60
2022/03/10 03:20:29;;;;;;;5.55;4.20;;;;;;;-0.73;100.00;99386.28;10329190;28;20491;-61
2022/03/10 03:25:35;;;;;;;5.53;3.88;;;;;;;-0.73;100.00;99382.78;10320705;28;20172;-60
2022/03/10 03:30:38;;;;;;;5.53;4.43;;;;;;;-0.82;100.00;99389.31;10329816;28;20578;-58
2022/03/10 03:35:41;;;;;;;5.05;4.00;;;;;;;-0.86;100.00;99398.28;10331432;28;20050;-59
2022/03/10 03:40:46;;;;;;;7.78;3.97;;;;;;;-0.89;100.00;99393.16;10309048;28;20176;-59
2022/03/10 03:45:49;;;;;;;4.35;3.67;;;;;;;-0.94;100.00;99391.56;10321272;28;20123;-60
2022/03/10 03:50:52;;;;;;;4.70;4.20;;;;;;;-0.94;100.00;99391.56;10329158;28;20049;-59
2022/03/10 03:55:57;;;;;;;6.93;4.20;;;;;;;-0.95;100.00;99389.84;10325598;28;20095;-59
2022/03/10 04:01:01;;;;;;;7.22;3.90;;;;;;;-0.97;100.00;99394.31;10305874;28;20409;-60
2022/03/10 04:06:04;;;;;;;4.65;3.90;;;;;;;-1.01;100.00;99390.09;10323139;28;20550;-57
2022/03/10 04:11:08;;;;;;;4.40;3.95;;;;;;;-1.02;100.00;99393.66;10304898;28;20046;-60
2022/03/10 04:16:12;;;;;;;4.65;3.88;;;;;;;-1.04;100.00;99397.28;10319828;28;20057;-56
2022/03/10 04:21:15;;;;;;;4.28;3.72;;;;;;;-1.07;100.00;99405.38;10307824;28;20057;-58
2022/03/10 04:26:19;;;;;;;6.22;3.95;;;;;;;-1.07;100.00;99402.72;10305920;28;20568;-60
2022/03/10 04:31:23;;;;;;;5.18;4.20;;;;;;;-1.09;100.00;99401.00;10280988;28;20393;-58
2022/03/10 04:36:27;;;;;;;5.30;4.07;;;;;;;-1.07;100.00;99400.06;10297272;28;20074;-57
2022/03/10 04:41:33;;;;;;;5.03;4.00;;;;;;;-1.10;100.00;99399.28;10281077;28;20078;-57
2022/03/10 04:46:37;;;;;;;6.88;4.38;;;;;;;-1.16;100.00;99396.03;10282237;28;20069;-58
2022/03/10 04:51:40;;;;;;;5.93;4.30;;;;;;;-1.17;100.00;99404.88;10282834;28;20050;-56
2022/03/10 04:56:44;;;;;;;4.85;4.00;;;;;;;-1.21;100.00;99405.91;10293423;28;20097;-59
2022/03/10 05:01:47;;;;;;;6.78;4.05;;;;;;;-1.29;100.00;99400.94;10299052;28;20518;-60
2022/03/10 05:06:50;;;;;;;4.30;3.90;;;;;;;-1.37;100.00;99403.91;10281756;28;20142;-60
2022/03/10 05:11:55;;;;;;;4.70;3.95;;;;;;;-1.40;100.00;99398.75;10293734;28;20073;-58
2022/03/10 05:16:59;;;;;;;5.35;4.40;;;;;;;-1.44;100.00;99398.00;10283244;28;20101;-59
2022/03/10 05:22:03;;;;;;;5.00;4.20;;;;;;;-1.47;100.00;99408.69;10281605;28;20051;-61
2022/03/10 05:27:07;;;;;;;5.53;4.40;;;;;;;-1.53;100.00;99402.78;10278111;28;20047;-60
2022/03/10 05:32:16;;;;;;;5.28;4.18;;;;;;;-1.59;100.00;99410.03;10280145;28;21340;-63
2022/03/10 05:37:19;;;;;;;5.22;4.60;;;;;;;-1.66;100.00;99411.19;10279732;28;20125;-59
2022/03/10 05:42:24;;;;;;;6.07;4.72;;;;;;;-1.69;100.00;99406.03;10284065;28;20046;-64
2022/03/10 05:47:27;;;;;;;8.55;5.05;;;;;;;-1.70;100.00;99409.56;10282210;28;20138;-60
2022/03/10 05:52:30;;;;;;;7.85;4.50;;;;;;;-1.75;100.00;99422.97;10279889;28;20057;-59
2022/03/10 05:57:35;;;;;;;7.70;4.82;;;;;;;-1.79;100.00;99420.50;10286217;28;20055;-60
2022/03/10 06:02:38;;;;;;;6.45;4.57;;;;;;;-1.80;100.00;99432.00;10289341;28;20046;-60
2022/03/10 06:07:41;;;;;;;7.53;4.47;;;;;;;-1.79;100.00;99436.34;10287224;28;20066;-60
2022/03/10 06:12:46;;;;;;;6.07;4.57;;;;;;;-1.83;100.00;99432.13;10286025;28;20236;-61
2022/03/10 06:17:49;;;;;;;8.35;4.53;;;;;;;-1.88;100.00;99424.34;10288014;28;20450;-60
2022/03/10 06:22:52;;;;;;;8.82;4.95;;;;;;;-1.93;100.00;99432.44;10288919;28;20122;-60
2022/03/10 06:27:56;;;;;;;7.45;5.47;;;;;;;-1.95;100.00;99436.97;10285913;28;20050;-61
2022/03/10 06:32:59;;;;;;;5.95;5.15;;;;;;;-1.94;100.00;99443.09;10406084;22;20057;-59
2022/03/10 06:38:02;;;;;;;8.18;6.00;;;;;;;-1.92;100.00;99449.19;10408804;28;20073;-58
2022/03/10 06:43:06;;;;;;;10.82;6.25;;;;;;;-1.90;100.00;99448.19;10376967;28;20045;-59
2022/03/10 06:48:10;;;;;;;7.55;5.90;;;;;;;-1.85;100.00;99450.66;10374885;28;20498;-60
2022/03/10 06:53:13;;;;;;;8.15;5.80;;;;;;;-1.78;100.00;99448.66;10378868;28;20136;-60
2022/03/10 06:58:18;;;;;;;8.18;5.90;;;;;;;-1.69;100.00;99450.09;10379592;28;20120;-62
2022/03/10 07:03:21;;;;;;;6.97;6.20;;;;;;;-1.62;100.00;99441.88;10393843;28;20077;-60
2022/03/10 07:08:24;;;;;;;6.50;5.68;;;;;;;-1.50;100.00;99451.09;10386917;28;20046;-55
2022/03/10 07:13:29;;;;;;;10.25;6.13;;;;;;;-1.38;100.00;99455.06;10366942;28;20502;-60
2022/03/10 07:18:32;;;;;;;9.40;6.47;;;;;;;-1.21;100.00;99453.50;10381524;28;20116;-58
2022/03/10 07:23:35;;;;;;;8.43;6.00;;;;;;;-1.09;100.00;99458.31;10376956;28;20117;-57
2022/03/10 07:28:40;;;;;;;7.22;5.97;;;;;;;-0.89;100.00;99460.16;10383418;28;20041;-57
2022/03/10 07:33:43;;;;;;;7.07;5.82;;;;;;;-0.65;100.00;99466.19;10380750;28;20116;-56
2022/03/10 07:38:52;;;;;;;6.13;5.53;;;;;;;-0.45;100.00;99467.16;10369714;28;20516;-60
2022/03/10 07:43:57;;;;;;;6.82;5.45;;;;;;;-0.24;100.00;99475.09;10375883;28;20157;-60
2022/03/10 07:49:00;;;;;;;7.70;5.82;;;;;;;0.01;100.00;99479.31;10374221;28;20037;-59
2022/03/10 07:54:03;;;;;;;9.30;6.28;;;;;;;0.24;100.00;99478.25;10377043;28;20117;-57
2022/03/10 07:59:07;;;;;;;8.43;6.72;;;;;;;0.46;100.00;99480.78;10370427;28;20049;-60
2022/03/10 08:04:10;;;;;;;8.60;6.50;;;;;;;0.74;100.00;99484.81;10374124;28;20052;-59
2022/03/10 08:09:13;;;;;;;8.77;6.40;;;;;;;1.01;100.00;99481.75;10375590;28;20397;-60
2022/03/10 08:14:18;;;;;;;7.95;5.85;;;;;;;1.34;100.00;99484.56;10372419;28;20073;-56
2022/03/10 08:19:21;;;;;;;6.57;5.32;;;;;;;1.63;100.00;99478.72;10374833;28;20061;-59
2022/03/10 08:24:26;;;;;;;6.03;4.75;;;;;;;2.00;100.00;99477.66;10370911;28;20073;-60
2022/03/10 08:29:31;;;;;;;5.47;4.45;;;;;;;2.19;100.00;99475.81;10376966;28;20117;-60
2022/03/10 08:34:34;;;;;;;6.35;4.05;;;;;;;2.51;100.00;99470.59;10371208;28;20076;-59
2022/03/10 08:39:37;;;;;;;9.70;4.30;;;;;;;2.90;100.00;99469.28;10369600;28;20077;-60
2022/03/10 08:44:41;;;;;;;5.10;4.10;;;;;;;3.18;100.00;99465.06;10373892;28;20042;-59
2022/03/10 08:49:44;;;;;;;5.13;3.97;;;;;;;3.47;100.00;99459.84;10364743;28;20438;-62
2022/03/10 08:54:47;;;;;;;7.43;3.75;;;;;;;3.73;100.00;99457.41;10375878;28;20076;-62
2022/03/10 08:59:52;;;;;;;6.38;3.90;;;;;;;3.96;100.00;99467.56;10364669;28;20139;-62
2022/03/10 09:04:54;;;;;;;6.05;4.05;;;;;;;4.32;100.00;99458.22;10386246;28;20054;-61
2022/03/10 09:09:59;;;;;;;6.35;3.88;;;;;;;4.74;100.00;99457.44;10367294;28;20082;-60
2022/03/10 09:15:04;;;;;;;3.90;3.50;;;;;;;5.02;100.00;99460.97;10383909;28;20099;-60
2022/03/10 09:20:08;;;;;;;5.97;3.42;;;;;;;5.29;100.00;99449.44;10366824;28;20049;-62
2022/03/10 09:25:12;;;;;;;4.80;3.55;;;;;;;5.59;100.00;99443.84;10375427;28;20084;-62
2022/03/10 09:30:16;;;;;;;5.25;3.67;;;;;;;5.80;100.00;99446.88;10384408;28;20057;-59
2022/03/10 09:35:19;;;;;;;5.43;3.25;;;;;;;6.06;100.00;99440.69;10376379;28;20048;-60
2022/03/10 09:40:23;;;;;;;3.85;2.92;;;;;;;6.29;100.00;99441.78;10377799;28;20068;-60
2022/03/10 09:45:30;;;;;;;4.75;3.50;;;;;;;6.66;98.59;99444.47;10376041;28;20088;-58
2022/03/10 09:50:33;;;;;;;4.80;3.00;;;;;;;6.76;92.50;99437.47;10363206;28;20042;-60
2022/03/10 09:55:36;;;;;;;4.43;3.13;;;;;;;7.08;85.11;99430.72;10373823;28;20046;-60
2022/03/10 10:00:41;;;;;;;3.45;2.85;;;;;;;7.24;86.10;99433.97;10374901;28;20409;-60
2022/03/10 10:05:44;;;;;;;6.57;2.78;;;;;;;7.54;72.76;99440.66;10367541;28;20136;-62
2022/03/10 10:10:48;;;;;;;2.88;2.38;;;;;;;7.65;68.59;99430.94;10370087;28;20455;-61
2022/03/10 10:15:56;;;;;;;3.50;2.30;;;;;;;7.75;62.23;99436.47;10366855;28;20042;-59
2022/03/10 10:21:00;;;;;;;4.22;2.30;;;;;;;7.92;63.22;99436.03;10365309;28;20458;-60
2022/03/10 10:26:06;;;;;;;2.60;2.30;;;;;;;8.14;60.54;99426.28;10374869;28;20050;-62
2022/03/10 10:31:12;;;;;;;2.70;2.10;;;;;;;8.32;57.11;99422.13;10375927;28;20157;-61
2022/03/10 10:36:17;;;;;;;4.82;2.30;;;;;;;8.58;60.06;99424.59;10386605;28;20052;-60
2022/03/10 10:41:27;;;;;;;2.80;2.42;;;;;;;8.68;56.20;99418.47;10371155;28;20049;-62
2022/03/10 10:46:39;;;;;;;2.83;2.53;;;;;;;8.81;57.24;99412.97;10375306;28;20057;-61
2022/03/10 10:51:44;;;;;;;4.22;2.97;;;;;;;8.88;57.73;99412.31;10376989;28;20075;-60
2022/03/10 10:56:48;;;;;;;3.35;2.60;;;;;;;9.01;59.49;99408.63;10378690;28;20136;-61
2022/03/10 11:02:04;;;;;;;3.25;2.50;;;;;;;9.12;56.90;99400.50;10374239;28;20490;-61
2022/03/10 11:07:09;;;;;;;3.20;2.90;;;;;;;9.21;56.32;99406.97;10370804;28;20046;-60
2022/03/10 11:12:15;;;;;;;4.22;2.90;;;;;;;9.31;57.58;99389.06;10395419;28;20422;-61
2022/03/10 11:17:20;;;;;;;3.72;2.70;;;;;;;9.39;56.40;99383.03;10382251;28;20120;-61
2022/03/10 11:22:31;;;;;;;2.88;2.40;;;;;;;9.58;55.05;99373.44;10367389;28;20096;-62
2022/03/10 11:27:39;;;;;;;5.00;2.42;;;;;;;9.73;54.36;99368.56;10385506;28;20056;-61
2022/03/10 11:32:43;;;;;;;2.90;2.25;;;;;;;9.90;54.14;99372.47;10375894;28;20052;-60
2022/03/10 11:37:52;;;;;;;2.42;2.20;;;;;;;10.00;54.20;99371.53;10375404;28;20125;-61
2022/03/10 11:43:01;;;;;;;2.85;2.40;;;;;;;10.09;50.00;99351.03;10378616;28;20057;-61
2022/03/10 11:48:37;;;;;;;2.58;2.28;;;;;;;10.20;49.18;99354.59;10374789;28;20056;-61
2022/03/10 11:54:06;;;;;;;3.78;2.60;;;;;;;10.38;49.88;99363.78;10369009;28;20470;-60
2022/03/10 11:59:19;;;;;;;4.07;2.90;;;;;;;10.50;51.26;99358.28;10372655;28;20044;-62
2022/03/10 12:04:35;;;;;;;3.40;2.35;;;;;;;10.61;49.65;99360.88;10375079;28;20128;-63
2022/03/10 12:09:41;;;;;;;3.97;2.47;;;;;;;10.71;50.50;99355.47;10368718;28;20282;-56
2022/03/10 12:14:45;;;;;;;3.03;2.55;;;;;;;10.85;49.68;99357.78;10376983;28;20048;-61
2022/03/10 12:20:17;;;;;;;3.08;2.17;;;;;;;10.99;46.46;99355.66;10365541;28;20061;-59
2022/03/10 12:25:22;;;;;;;4.80;2.40;;;;;;;11.13;48.00;99332.81;10339279;28;20676;-62
2022/03/10 12:30:27;;;;;;;5.90;2.50;;;;;;;11.20;49.15;99342.06;10373386;28;20403;-63
2022/03/10 12:35:34;;;;;;;3.83;2.28;;;;;;;11.22;47.49;99334.69;10369636;28;20034;-61
2022/03/10 12:40:41;;;;;;;2.78;2.42;;;;;;;11.45;46.89;99337.06;10383008;28;20125;-62
2022/03/10 12:45:49;;;;;;;4.50;2.40;;;;;;;11.71;46.62;99321.94;10365696;28;20061;-60
2022/03/10 12:50:56;;;;;;;2.80;2.42;;;;;;;11.77;44.83;99325.06;10344051;28;20112;-61
2022/03/10 12:56:05;;;;;;;3.80;2.65;;;;;;;11.90;45.58;99330.13;10363835;28;20068;-72
2022/03/10 13:01:09;;;;;;;3.85;2.85;;;;;;;12.16;46.07;99314.97;10362982;28;20499;-60
2022/03/10 13:06:15;;;;;;;4.25;3.50;;;;;;;12.22;44.29;99313.53;10362278;28;20064;-63
2022/03/10 13:11:23;;;;;;;3.88;3.58;;;;;;;12.36;43.80;99308.63;10361707;28;20557;-62
2022/03/10 13:16:32;;;;;;;5.47;4.05;;;;;;;12.52;42.82;99308.81;10390665;28;20438;-64
2022/03/10 13:21:37;;;;;;;5.13;3.55;;;;;;;12.60;42.28;99302.63;10385378;28;20491;-62
2022/03/10 13:26:40;;;;;;;4.13;3.63;;;;;;;12.76;42.34;99297.41;10360338;28;20414;-64
2022/03/10 13:31:45;;;;;;;4.00;3.60;;;;;;;12.94;42.11;99289.28;10361175;28;20062;-62
2022/03/10 13:36:50;;;;;;;3.67;3.38;;;;;;;13.12;41.93;99290.28;10364204;28;20072;-63
2022/03/10 13:41:55;;;;;;;5.13;2.90;;;;;;;13.31;39.65;99286.53;10365866;28;20057;-63
2022/03/10 13:47:06;;;;;;;3.95;2.17;;;;;;;13.34;37.81;99270.84;10361467;28;20227;-64
2022/03/10 13:52:16;;;;;;;3.35;2.33;;;;;;;13.46;38.65;99282.31;10360129;28;20077;-64
2022/03/10 13:57:19;;;;;;;3.13;2.30;;;;;;;13.58;39.35;99280.16;10362842;28;20046;-64
2022/03/10 14:02:25;;;;;;;3.42;2.15;;;;;;;13.71;39.60;99282.44;10364279;28;20033;-61
2022/03/10 14:07:30;;;;;;;3.78;1.83;;;;;;;13.92;40.42;99279.31;10361671;28;20096;-62
2022/03/10 14:12:33;;;;;;;3.47;1.60;;;;;;;14.17;38.95;99266.72;10362578;28;20057;-62
2022/03/10 14:17:41;;;;;;;4.93;1.65;;;;;;;14.41;38.58;99261.56;10366760;28;20069;-64
2022/03/10 14:22:46;;;;;;;1.92;1.50;;;;;;;14.35;38.36;99257.66;10368815;28;20038;-60
2022/03/10 14:27:49;;;;;;;2.75;1.80;;;;;;;14.52;38.62;99255.00;10369090;28;20054;-63
2022/03/10 14:32:53;;;;;;;2.03;1.80;;;;;;;14.62;38.28;99250.25;10369594;28;20145;-61
2022/03/10 14:37:57;;;;;;;3.00;2.00;;;;;;;14.71;39.28;99246.56;10372840;28;20054;-63
2022/03/10 14:43:01;;;;;;;2.10;1.90;;;;;;;14.87;40.05;99245.72;10375584;28;20514;-60
2022/03/10 14:48:06;;;;;;;2.20;2.00;;;;;;;14.85;39.38;99236.91;10375736;28;20073;-56
2022/03/10 14:53:10;;;;;;;2.53;2.33;;;;;;;14.74;39.15;99229.97;10380259;28;20556;-61
2022/03/10 14:58:14;;;;;;;3.10;2.42;;;;;;;14.99;39.29;99237.25;10377144;28;20045;-61
2022/03/10 15:03:17;;;;;;;3.03;2.30;;;;;;;15.16;39.60;99232.66;10369265;28;20073;-62
2022/03/10 15:08:22;;;;;;;2.50;2.20;;;;;;;15.02;40.01;99226.06;10365739;28;20058;-59
2022/03/10 15:13:25;;;;;;;2.42;2.05;;;;;;;15.04;40.67;99218.59;10370499;28;20466;-60
2022/03/10 15:18:28;;;;;;;2.72;2.20;;;;;;;15.27;41.48;99216.03;10379367;28;20064;-65
2022/03/10 15:23:36;;;;;;;4.13;2.80;;;;;;;14.72;42.50;99221.16;10399299;28;20033;-61
2022/03/10 15:28:39;;;;;;;3.53;2.80;;;;;;;14.44;43.85;99212.44;10371233;28;20284;-57
2022/03/10 15:33:43;;;;;;;7.20;2.70;;;;;;;13.98;44.79;99200.13;10369124;28;20052;-58
2022/03/10 15:38:52;;;;;;;4.35;2.88;;;;;;;13.60;45.32;99209.59;10395927;28;20049;-62
2022/03/10 15:43:56;;;;;;;4.22;2.90;;;;;;;13.23;45.98;99204.28;10392560;28;20077;-60
2022/03/10 15:48:59;;;;;;;6.03;3.08;;;;;;;13.03;46.43;99205.50;10398672;28;20040;-57
2022/03/10 15:54:04;;;;;;;5.55;3.10;;;;;;;12.97;47.19;99208.84;10391288;28;20067;-54
2022/03/10 15:59:08;;;;;;;6.32;2.80;;;;;;;13.13;45.63;99200.00;10399480;28;20096;-54
2022/03/10 16:04:14;;;;;;;3.42;3.00;;;;;;;13.22;45.26;99197.19;10396645;28;20416;-58
2022/03/10 16:09:19;;;;;;;4.43;2.90;;;;;;;13.02;45.66;99207.38;10387530;28;20048;-59
2022/03/10 16:14:23;;;;;;;6.38;3.30;;;;;;;12.75;46.53;99211.03;10376868;28;20554;-57
2022/03/10 16:19:26;;;;;;;7.38;3.80;;;;;;;12.30;48.86;99202.00;10367755;28;20057;-48
2022/03/10 16:24:31;;;;;;;6.15;3.90;;;;;;;11.92;50.31;99199.38;10365464;28;20045;-65
2022/03/10 16:29:37;;;;;;;4.93;3.85;;;;;;;11.61;51.33;99194.25;10368336;28;20149;-54
2022/03/10 16:34:40;;;;;;;5.18;4.05;;;;;;;11.29;53.39;99202.78;10369201;28;20141;-53
2022/03/10 16:39:45;;;;;;;8.93;3.88;;;;;;;10.99;54.10;99213.63;10363868;28;20049;-63
2022/03/10 16:44:52;;;;;;;7.20;4.20;;;;;;;10.67;54.69;99214.78;10370424;28;20061;-57
2022/03/10 16:49:56;;;;;;;4.88;3.90;;;;;;;10.29;56.12;99198.44;10362404;28;20153;-57
2022/03/10 16:55:01;;;;;;;5.45;4.00;;;;;;;10.00;57.76;99209.16;10365671;28;20050;-53
2022/03/10 17:00:05;;;;;;;6.53;3.90;;;;;;;9.61;59.25;99217.09;10359395;28;20080;-59
2022/03/10 17:05:12;;;;;;;5.40;4.07;;;;;;;9.21;62.81;99222.31;10368814;28;20056;-64
2022/03/10 17:10:17;;;;;;;7.00;5.20;;;;;;;8.67;85.18;99217.97;10364276;28;21324;-54
2022/03/10 17:15:20;;;;;;;10.15;5.47;;;;;;;8.23;98.42;99216.16;10370591;28;20497;-63
2022/03/10 17:20:23;;;;;;;5.55;4.80;;;;;;;7.88;100.00;99222.56;10366680;28;20064;-74
2022/03/10 17:25:28;;;;;;;8.65;5.28;;;;;;;7.63;100.00;99219.19;10391641;28;20490;-63
2022/03/10 17:30:34;;;;;;;6.22;5.00;;;;;;;7.42;100.00;99231.63;10385232;28;20129;-68
2022/03/10 17:35:38;;;;;;;6.82;5.13;;;;;;;7.21;100.00;99235.88;10368276;28;20045;-69
2022/03/10 17:40:43;;;;;;;7.07;5.82;;;;;;;7.03;100.00;99226.59;10371433;28;20093;-57
2022/03/10 17:45:46;;;;;;;6.70;5.95;;;;;;;6.82;100.00;99224.56;10361443;28;20046;-58
2022/03/10 17:50:49;;;;;;;7.22;6.07;;;;;;;6.58;100.00;99243.38;10364408;28;20460;-64
2022/03/10 17:55:54;;;;;;;7.60;6.55;;;;;;;6.35;100.00;99243.25;10373639;28;20504;-52
2022/03/10 18:00:57;;;;;;;9.05;7.05;;;;;;;6.19;100.00;99248.03;10373604;28;20141;-58
2022/03/10 18:06:02;;;;;;;7.85;6.85;;;;;;;6.01;100.00;99256.44;10407294;28;20037;-64
2022/03/10 18:11:07;;;;;;;9.07;7.15;;;;;;;5.86;100.00;99253.88;10407746;28;20051;-63
2022/03/10 18:16:10;;;;;;;10.20;6.90;;;;;;;5.72;100.00;99256.69;10370859;28;20053;-59
2022/03/10 18:21:14;;;;;;;9.02;7.22;;;;;;;5.54;100.00;99253.50;10383228;28;20060;-64
2022/03/10 18:26:18;;;;;;;9.70;7.60;;;;;;;5.40;100.00;99257.16;10376230;28;20133;-66
2022/03/10 18:31:21;;;;;;;8.38;7.53;;;;;;;5.25;100.00;99259.94;10383125;22;20520;-65
2022/03/10 18:36:24;;;;;;;9.10;7.60;;;;;;;5.18;100.00;99253.31;10367784;28;20121;-60
2022/03/10 18:41:29;;;;;;;8.93;7.80;;;;;;;5.09;100.00;99253.97;10357529;28;20468;-63
2022/03/10 18:46:32;;;;;;;10.60;7.85;;;;;;;5.03;100.00;99259.69;10343766;28;20121;-61
2022/03/10 18:51:37;;;;;;;10.75;7.68;;;;;;;4.92;100.00;99260.47;10336005;28;20494;-64
2022/03/10 18:56:42;;;;;;;11.95;7.82;;;;;;;4.91;100.00;99248.91;10329764;28;20133;-60
2022/03/10 19:01:45;;;;;;;8.90;7.50;;;;;;;4.83;100.00;99251.25;10355297;28;20211;-62
2022/03/10 19:06:50;;;;;;;10.07;8.02;;;;;;;4.80;100.00;99258.63;10335875;28;20549;-62
2022/03/10 19:11:55;;;;;;;9.75;7.53;;;;;;;4.74;100.00;99265.22;10343271;28;20070;-63
2022/03/10 19:16:58;;;;;;;9.30;8.40;;;;;;;4.72;100.00;99261.81;10352141;28;20876;-62
2022/03/10 19:22:02;;;;;;;10.27;8.10;;;;;;;4.68;100.00;99270.97;10327013;28;20065;-63
2022/03/10 19:27:07;;;;;;;9.35;7.60;;;;;;;4.62;100.00;99273.09;10345186;28;20528;-63
2022/03/10 19:32:10;;;;;;;9.20;7.80;;;;;;;4.56;100.00;99270.81;10362181;28;20050;-62
2022/03/10 19:37:13;;;;;;;9.00;7.90;;;;;;;4.53;100.00;99276.34;10357859;28;20125;-63
2022/03/10 19:42:18;;;;;;;10.05;7.90;;;;;;;4.46;100.00;99269.72;10348943;28;20451;-61
2022/03/10 19:47:21;;;;;;;11.50;8.48;;;;;;;4.39;100.00;99265.75;10339376;28;20057;-63
2022/03/10 19:52:24;;;;;;;9.05;8.15;;;;;;;4.34;100.00;99266.06;10347583;28;20108;-63
2022/03/10 19:57:29;;;;;;;10.48;8.27;;;;;;;4.28;100.00;99270.00;10351871;28;20462;-62
2022/03/10 20:02:33;;;;;;;9.20;8.30;;;;;;;4.17;100.00;99272.50;10356941;28;20136;-62
2022/03/10 20:07:36;;;;;;;12.07;8.23;;;;;;;4.10;100.00;99271.16;10352367;28;20042;-58
2022/03/10 20:12:41;;;;;;;10.50;8.15;;;;;;;4.02;100.00;99269.00;10355055;28;20046;-55
2022/03/10 20:17:44;;;;;;;8.73;7.75;;;;;;;3.93;100.00;99265.13;10338379;28;20117;-60
2022/03/10 20:22:47;;;;;;;9.93;8.60;;;;;;;3.80;100.00;99274.88;10355690;28;20384;-57
2022/03/10 20:27:52;;;;;;;10.48;8.02;;;;;;;3.65;100.00;99272.19;10339966;28;20038;-59
2022/03/10 20:32:55;;;;;;;9.38;7.68;;;;;;;3.48;100.00;99267.06;10346159;28;20060;-60
2022/03/10 20:37:59;;;;;;;8.60;7.63;;;;;;;3.37;100.00;99271.25;10353981;28;20401;-59
2022/03/10 20:43:04;;;;;;;8.48;6.90;;;;;;;3.23;100.00;99260.59;10352139;28;20098;-60
2022/03/10 20:48:12;;;;;;;8.32;7.47;;;;;;;3.14;100.00;99267.34;10354302;28;20065;-59
2022/03/10 20:53:16;;;;;;;8.10;6.93;;;;;;;3.04;100.00;99252.88;10355832;28;20088;-60
2022/03/10 20:58:22;;;;;;;8.20;6.78;;;;;;;2.92;100.00;99249.13;10350111;28;20047;-61
2022/03/10 21:03:26;;;;;;;7.60;6.25;;;;;;;2.78;100.00;99240.16;10352323;28;20041;-60
2022/03/10 21:08:30;;;;;;;7.70;6.80;;;;;;;2.64;100.00;99240.16;10340481;28;20064;-63
2022/03/10 21:13:35;;;;;;;7.80;6.55;;;;;;;2.50;100.00;99235.63;10324810;28;20447;-63
2022/03/10 21:18:38;;;;;;;6.72;5.78;;;;;;;2.35;100.00;99232.06;10322254;28;20206;-63
2022/03/10 21:23:41;;;;;;;7.82;6.35;;;;;;;2.25;100.00;99229.06;10328498;28;20586;-60
2022/03/10 21:28:45;;;;;;;6.32;5.72;;;;;;;2.17;100.00;99227.81;10320318;28;20042;-62
2022/03/10 21:33:48;;;;;;;7.80;5.47;;;;;;;2.12;100.00;99223.59;10322731;28;20137;-62
2022/03/10 21:39:01;;;;;;;6.82;5.30;;;;;;;2.07;100.00;99220.34;10316659;28;20535;-63
2022/03/10 21:44:11;;;;;;;7.25;5.20;;;;;;;2.00;100.00;99211.88;10345372;28;20053;-63
2022/03/10 21:49:14;;;;;;;5.45;4.90;;;;;;;1.94;100.00;99222.00;10314420;28;20574;-62
2022/03/10 21:54:18;;;;;;;10.63;5.75;;;;;;;1.90;100.00;99220.47;10321615;28;20050;-62
2022/03/10 21:59:23;;;;;;;5.90;5.30;;;;;;;1.83;99.71;99212.81;10318999;28;20850;-62
2022/03/10 22:04:26;;;;;;;5.35;4.85;;;;;;;1.76;100.00;99214.13;10307337;28;20097;-63
2022/03/10 22:09:29;;;;;;;4.90;4.40;;;;;;;1.72;98.57;99209.91;10324642;28;20474;-63
2022/03/10 22:14:34;;;;;;;5.25;4.55;;;;;;;1.67;97.16;99225.25;10321503;28;20426;-62
2022/03/10 22:19:37;;;;;;;5.10;4.45;;;;;;;1.56;96.96;99222.34;10303268;28;20108;-62
2022/03/10 22:24:40;;;;;;;4.63;4.15;;;;;;;1.48;97.02;99214.78;10304924;28;20074;-63
2022/03/10 22:29:45;;;;;;;4.90;4.32;;;;;;;1.41;97.61;99218.72;10322416;28;20105;-59
2022/03/10 22:34:48;;;;;;;4.75;4.20;;;;;;;1.29;99.14;99218.47;10307236;28;20058;-63
2022/03/10 22:39:52;;;;;;;4.57;4.10;;;;;;;1.23;98.84;99219.63;10340546;28;20062;-61
2022/03/10 22:44:57;;;;;;;5.38;4.53;;;;;;;1.17;98.91;99225.25;10356760;28;20453;-62
2022/03/10 22:55:21;;;;;;;6.47;4.37;;;;;;;1.05;99.74;99217.97;10357147;28;20116;-62
2022/03/10 23:00:37;;;;;;;5.22;4.22;;;;;;;0.94;100.00;99209.72;10343572;28;20582;-61
2022/03/10 23:11:02;;;;;;;6.10;4.50;;;;;;;0.71;100.00;99219.72;10354414;28;20065;-61
2022/03/10 23:16:07;;;;;;;5.97;4.25;;;;;;;0.64;100.00;99223.63;10347923;28;20125;-62
2022/03/10 23:21:10;;;;;;;6.80;4.22;;;;;;;0.54;100.00;99223.25;10343202;28;20177;-62
2022/03/10 23:26:13;;;;;;;7.63;4.45;;;;;;;0.49;100.00;99226.13;10327889;28;20121;-62
2022/03/10 23:31:17;;;;;;;5.20;4.22;;;;;;;0.35;100.00;99218.00;10327139;28;20137;-62
2022/03/10 23:36:20;;;;;;;4.70;4.22;;;;;;;0.28;100.00;99215.69;10326483;28;20467;-60
2022/03/10 23:41:23;;;;;;;4.75;4.25;;;;;;;0.24;100.00;99213.22;10311754;28;20038;-63
2022/03/10 23:46:30;;;;;;;4.82;4.15;;;;;;;0.18;100.00;99219.69;10353601;28;20038;-63
2022/03/10 23:51:33;;;;;;;4.88;4.32;;;;;;;0.09;100.00;99214.84;10353170;28;20069;-63
2022/03/10 23:56:36;;;;;;;6.30;4.13;;;;;;;-0.03;100.00;99206.56;10320474;28;20574;-63
